createdAt,value
2018-07-14T00:02:25.726Z,11.40
2018-07-14T00:04:55.275Z,9.60
2018-07-14T00:07:24.743Z,8.17
2018-07-14T00:09:55.274Z,9.50
2018-07-14T00:12:25.178Z,7.97
2018-07-14T00:14:54.530Z,11.03
2018-07-14T00:17:24.379Z,10.63
2018-07-14T00:19:54.630Z,9.63
2018-07-14T00:22:25.175Z,7.10
2018-07-14T00:24:54.858Z,7.80
2018-07-14T00:27:25.051Z,9.37
2018-07-14T00:29:55.726Z,9.63
2018-07-14T00:32:25.079Z,9.07
2018-07-14T00:34:55.046Z,7.87
2018-07-14T00:37:25.521Z,10.03
2018-07-14T00:39:54.822Z,10.53
2018-07-14T00:42:26.639Z,7.03
2018-07-14T00:44:56.673Z,9.67
2018-07-14T00:47:25.823Z,8.53
2018-07-14T00:49:55.403Z,10.33
2018-07-14T00:52:25.870Z,8.80
2018-07-14T00:54:55.621Z,11.70
2018-07-14T00:57:26.754Z,8.60
2018-07-14T00:59:56.602Z,7.53
2018-07-14T01:02:26.983Z,13.53
2018-07-14T01:04:56.830Z,9.07
2018-07-14T01:07:27.550Z,10.03
2018-07-14T01:09:57.627Z,10.17
2018-07-14T01:12:27.838Z,11.13
2018-07-14T01:14:58.308Z,10.47
2018-07-14T01:17:28.561Z,8.37
2018-07-14T01:19:59.431Z,10.70
2018-07-14T01:22:29.313Z,9.97
2018-07-14T01:24:59.422Z,11.10
2018-07-14T01:27:29.678Z,9.73
2018-07-14T01:29:59.126Z,8.90
2018-07-14T01:32:34.558Z,10.87
2018-07-14T01:35:05.830Z,8.47
2018-07-14T01:37:37.438Z,10.90
2018-07-14T01:40:07.218Z,8.70
2018-07-14T01:42:37.032Z,9.93
2018-07-14T01:45:07.087Z,9.47
2018-07-14T01:47:36.990Z,10.90
2018-07-14T01:50:06.678Z,9.60
2018-07-14T01:52:37.431Z,12.60
2018-07-14T01:55:07.622Z,10.30
2018-07-14T01:57:39.238Z,10.27
2018-07-14T02:00:08.927Z,10.17
2018-07-14T02:02:38.322Z,12.57
2018-07-14T02:05:09.118Z,10.37
2018-07-14T02:07:38.826Z,12.90
2018-07-14T02:10:08.866Z,8.83
2018-07-14T02:12:39.792Z,10.43
2018-07-14T02:15:10.006Z,9.27
2018-07-14T02:17:39.970Z,10.00
2018-07-14T02:20:10.365Z,11.10
2018-07-14T02:22:40.601Z,10.37
2018-07-14T02:25:09.825Z,10.13
2018-07-14T02:27:40.154Z,9.83
2018-07-14T02:30:09.931Z,11.83
2018-07-14T02:32:39.995Z,13.73
2018-07-14T02:35:12.315Z,13.03
2018-07-14T02:37:43.542Z,11.47
2018-07-14T02:40:13.123Z,11.87
2018-07-14T02:42:42.693Z,11.40
2018-07-14T02:45:12.234Z,12.30
2018-07-14T02:47:42.023Z,12.13
2018-07-14T02:50:12.363Z,13.50
2018-07-14T02:52:43.383Z,10.87
2018-07-14T02:55:15.188Z,14.70
2018-07-14T02:57:45.956Z,13.07
2018-07-14T03:00:16.862Z,11.33
2018-07-14T03:02:46.322Z,11.70
2018-07-14T03:05:16.390Z,11.90
2018-07-14T03:07:46.333Z,11.87
2018-07-14T03:10:15.904Z,14.67
2018-07-14T03:12:45.953Z,15.40
2018-07-14T03:15:15.578Z,12.43
2018-07-14T03:17:46.788Z,14.33
2018-07-14T03:20:18.571Z,13.80
2018-07-14T03:22:48.670Z,13.10
2018-07-14T03:25:19.474Z,12.23
2018-07-14T03:27:48.952Z,18.00
2018-07-14T03:30:18.466Z,13.67
2018-07-14T03:32:49.146Z,12.77
2018-07-14T03:35:19.438Z,15.60
2018-07-14T03:37:49.831Z,13.00
2018-07-14T03:40:19.502Z,16.43
2018-07-14T03:42:49.371Z,17.40
2018-07-14T03:45:19.496Z,14.03
2018-07-14T03:47:51.114Z,19.70
2018-07-14T03:50:21.637Z,13.53
2018-07-14T03:52:51.486Z,15.93
2018-07-14T03:55:21.502Z,18.13
2018-07-14T03:57:51.986Z,14.30
2018-07-14T04:00:21.722Z,17.97
2018-07-14T04:02:52.106Z,15.37
2018-07-14T04:05:22.314Z,19.30
2018-07-14T04:07:53.405Z,14.20
2018-07-14T04:10:23.178Z,15.90
2018-07-14T04:12:54.774Z,20.07
2018-07-14T04:15:24.886Z,19.17
2018-07-14T04:18:02.183Z,19.80
2018-07-14T04:20:34.710Z,16.93
2018-07-14T04:23:04.518Z,19.67
2018-07-14T04:25:34.971Z,17.57
2018-07-14T04:28:05.626Z,19.33
2018-07-14T04:30:36.387Z,17.20
2018-07-14T04:33:06.268Z,16.87
2018-07-14T04:35:35.863Z,20.83
2018-07-14T04:38:06.593Z,17.63
2018-07-14T04:40:36.675Z,16.73
2018-07-14T04:43:07.150Z,18.13
2018-07-14T04:45:36.752Z,19.13
2018-07-14T04:48:06.715Z,19.13
2018-07-14T04:50:36.818Z,20.27
2018-07-14T04:53:07.130Z,18.90
2018-07-14T04:55:36.695Z,19.00
2018-07-14T04:58:08.582Z,23.60
2018-07-14T05:00:39.504Z,19.57
2018-07-14T05:03:08.881Z,18.17
2018-07-14T05:05:38.748Z,19.93
2018-07-14T05:08:08.998Z,20.13
2018-07-14T05:10:38.586Z,20.70
2018-07-14T05:13:09.709Z,19.20
2018-07-14T05:15:39.578Z,18.67
2018-07-14T05:18:09.664Z,23.03
2018-07-14T05:20:39.199Z,23.77
2018-07-14T05:23:09.066Z,19.63
2018-07-14T05:25:39.733Z,21.77
2018-07-14T05:28:09.475Z,19.63
2018-07-14T05:30:39.420Z,20.90
2018-07-14T05:33:10.854Z,20.20
2018-07-14T05:35:41.074Z,18.37
2018-07-14T05:38:11.083Z,19.60
2018-07-14T05:40:42.245Z,19.37
2018-07-14T05:43:12.574Z,18.00
2018-07-14T05:45:44.087Z,20.20
2018-07-14T05:48:13.768Z,20.57
2018-07-14T05:50:43.622Z,18.53
2018-07-14T05:53:14.641Z,19.17
2018-07-14T05:55:44.762Z,20.87
2018-07-14T05:58:14.761Z,20.50
2018-07-14T06:00:45.722Z,22.83
2018-07-14T06:03:15.758Z,19.63
2018-07-14T06:05:45.771Z,22.10
2018-07-14T06:08:15.739Z,19.50
2018-07-14T06:10:45.641Z,21.67
2018-07-14T06:13:14.690Z,21.10
2018-07-14T06:15:44.486Z,23.00
2018-07-14T06:18:14.562Z,20.07
2018-07-14T06:20:44.958Z,19.93
2018-07-14T06:23:15.272Z,20.43
2018-07-14T06:25:45.674Z,19.67
2018-07-14T06:28:15.914Z,20.57
2018-07-14T06:30:46.890Z,20.47
2018-07-14T06:33:17.526Z,21.13
2018-07-14T06:35:46.526Z,19.40
2018-07-14T06:38:16.947Z,20.70
2018-07-14T06:40:47.586Z,20.17
2018-07-14T06:43:17.610Z,21.33
2018-07-14T06:45:47.970Z,23.27
2018-07-14T06:48:19.467Z,22.73
2018-07-14T06:50:49.443Z,21.47
2018-07-14T06:53:19.341Z,22.30
2018-07-14T06:55:49.050Z,24.00
2018-07-14T06:58:19.986Z,20.53
2018-07-14T07:00:51.954Z,25.30
2018-07-14T07:03:21.696Z,26.20
2018-07-14T07:05:51.959Z,25.90
2018-07-14T07:08:21.466Z,25.10
2018-07-14T07:10:52.490Z,24.27
2018-07-14T07:13:22.385Z,21.20
2018-07-14T07:15:52.471Z,24.57
2018-07-14T07:18:22.421Z,21.50
2018-07-14T07:20:52.585Z,23.03
2018-07-14T07:23:23.289Z,20.33
2018-07-14T07:25:53.249Z,21.13
2018-07-14T07:28:25.158Z,21.93
2018-07-14T07:30:54.977Z,22.37
2018-07-14T07:33:24.898Z,23.30
2018-07-14T07:35:55.459Z,20.47
2018-07-14T07:38:25.700Z,18.33
2018-07-14T07:40:56.858Z,17.93
2018-07-14T07:43:26.289Z,21.10
2018-07-14T07:45:56.563Z,22.53
2018-07-14T07:48:26.454Z,19.03
2018-07-14T07:50:56.860Z,17.47
2018-07-14T07:53:26.658Z,18.73
2018-07-14T07:55:56.246Z,18.70
2018-07-14T07:58:26.918Z,19.97
2018-07-14T08:00:57.438Z,17.37
2018-07-14T08:03:27.518Z,21.17
2018-07-14T08:05:58.019Z,19.33
2018-07-14T08:08:28.358Z,21.87
2018-07-14T08:10:58.438Z,19.23
2018-07-14T08:13:29.486Z,17.93
2018-07-14T08:15:58.705Z,16.60
2018-07-14T08:18:28.402Z,21.93
2018-07-14T08:20:59.074Z,16.00
2018-07-14T08:23:29.106Z,17.63
2018-07-14T08:25:59.770Z,16.47
2018-07-14T08:28:30.834Z,17.53
2018-07-14T08:31:00.951Z,18.23
2018-07-14T08:33:32.304Z,18.00
2018-07-14T08:36:03.106Z,19.47
2018-07-14T08:38:32.662Z,17.00
2018-07-14T08:41:03.858Z,18.03
2018-07-14T08:43:33.494Z,12.17
2018-07-14T08:46:03.291Z,12.43
2018-07-14T08:48:33.373Z,13.90
2018-07-14T08:51:04.351Z,16.60
2018-07-14T08:53:34.566Z,13.27
2018-07-14T08:56:04.382Z,13.40
2018-07-14T08:58:34.199Z,15.50
2018-07-14T09:01:04.930Z,13.80
2018-07-14T09:03:36.413Z,16.83
2018-07-14T09:06:06.270Z,16.03
2018-07-14T09:08:36.322Z,15.60
2018-07-14T09:11:07.094Z,14.03
2018-07-14T09:13:37.432Z,14.80
2018-07-14T09:16:07.419Z,14.60
2018-07-14T09:18:37.550Z,15.60
2018-07-14T09:21:08.037Z,15.03
2018-07-14T09:23:39.373Z,17.00
2018-07-14T09:26:09.364Z,15.17
2018-07-14T09:28:39.240Z,11.90
2018-07-14T09:31:10.326Z,11.03
2018-07-14T09:33:40.606Z,13.63
2018-07-14T09:36:10.442Z,9.90
2018-07-14T09:38:41.697Z,11.20
2018-07-14T09:41:11.579Z,10.53
2018-07-14T09:43:41.570Z,12.77
2018-07-14T09:46:11.474Z,12.00
2018-07-14T09:48:41.313Z,11.07
2018-07-14T09:51:11.365Z,14.30
2018-07-14T09:53:41.524Z,10.63
2018-07-14T09:56:10.814Z,11.17
2018-07-14T09:58:40.605Z,14.60
2018-07-14T10:01:11.397Z,12.60
2018-07-14T10:03:41.398Z,11.17
2018-07-14T10:06:10.901Z,12.67
2018-07-14T10:08:41.136Z,11.70
2018-07-14T10:11:11.262Z,11.50
2018-07-14T10:13:40.626Z,12.03
2018-07-14T10:16:10.581Z,13.20
2018-07-14T10:18:40.450Z,11.00
2018-07-14T10:21:11.175Z,11.07
2018-07-14T10:23:40.428Z,11.50
2018-07-14T10:26:11.422Z,10.00
2018-07-14T10:28:40.966Z,10.37
2018-07-14T10:31:10.062Z,8.80
2018-07-14T10:33:39.926Z,10.60
2018-07-14T10:36:10.482Z,10.73
2018-07-14T10:38:39.856Z,8.93
2018-07-14T10:41:10.563Z,10.07
2018-07-14T10:43:41.718Z,9.03
2018-07-14T10:46:10.593Z,11.20
2018-07-14T10:48:39.858Z,12.37
2018-07-14T10:51:09.123Z,13.00
2018-07-14T10:53:39.327Z,11.57
2018-07-14T10:56:08.808Z,9.97
2018-07-14T10:58:39.574Z,10.63
2018-07-14T11:01:09.430Z,11.30
2018-07-14T11:03:41.062Z,17.17
2018-07-14T11:06:10.483Z,11.53
2018-07-14T11:08:39.666Z,16.93
2018-07-14T11:11:09.569Z,12.10
2018-07-14T11:13:39.153Z,12.63
2018-07-14T11:16:08.438Z,11.97
2018-07-14T11:18:39.547Z,10.80
2018-07-14T11:21:09.709Z,13.70
2018-07-14T11:23:39.118Z,11.20
2018-07-14T11:26:09.514Z,10.97
2018-07-14T11:28:39.395Z,12.40
2018-07-14T11:31:09.922Z,11.33
2018-07-14T11:33:39.371Z,11.43
2018-07-14T11:36:09.974Z,12.97
2018-07-14T11:38:39.811Z,12.30
2018-07-14T11:41:10.158Z,9.57
2018-07-14T11:43:39.798Z,10.70
2018-07-14T11:46:10.258Z,9.73
2018-07-14T11:48:39.717Z,11.27
2018-07-14T11:51:09.426Z,12.90
2018-07-14T11:53:40.181Z,12.63
2018-07-14T11:56:10.308Z,12.67
2018-07-14T11:58:40.149Z,15.63
2018-07-14T12:01:09.732Z,14.10
2018-07-14T12:03:40.062Z,10.40
2018-07-14T12:06:10.280Z,13.67
2018-07-14T12:08:40.247Z,12.70
2018-07-14T12:11:10.358Z,13.80
2018-07-14T12:13:39.381Z,11.73
2018-07-14T12:16:09.471Z,12.67
2018-07-14T12:18:41.201Z,12.77
2018-07-14T12:21:11.546Z,10.20
2018-07-14T12:23:41.534Z,8.30
2018-07-14T12:26:11.417Z,10.20
2018-07-14T12:28:41.126Z,9.20
2018-07-14T12:31:11.916Z,10.20
2018-07-14T12:33:41.590Z,10.03
2018-07-14T12:36:12.274Z,7.10
2018-07-14T12:38:42.610Z,13.40
2018-07-14T12:41:12.389Z,10.83
2018-07-14T12:43:41.933Z,11.73
2018-07-14T12:46:11.362Z,16.73
2018-07-14T12:48:40.746Z,19.33
2018-07-14T12:51:10.672Z,12.93
2018-07-14T12:53:42.094Z,14.20
2018-07-14T12:56:11.834Z,13.43
2018-07-14T12:58:42.386Z,10.77
2018-07-14T13:01:11.573Z,10.37
2018-07-14T13:03:43.246Z,11.43
2018-07-14T13:06:12.637Z,14.00
2018-07-14T13:08:42.467Z,10.67
2018-07-14T13:11:12.559Z,8.93
2018-07-14T13:13:43.162Z,12.47
2018-07-14T13:16:13.617Z,13.03
2018-07-14T13:18:43.119Z,10.73
2018-07-14T13:21:13.406Z,10.03
2018-07-14T13:23:44.388Z,7.83
2018-07-14T13:26:13.753Z,9.70
2018-07-14T13:28:43.515Z,7.60
2018-07-14T13:31:12.994Z,9.67
2018-07-14T13:33:42.541Z,7.63
2018-07-14T13:36:13.012Z,11.30
2018-07-14T13:38:51.263Z,11.23
2018-07-14T13:41:12.758Z,15.00
2018-07-14T13:43:42.465Z,9.00
2018-07-14T13:46:13.054Z,7.50
2018-07-14T13:48:44.514Z,5.73
2018-07-14T13:51:17.381Z,6.87
2018-07-14T13:53:48.030Z,8.73
2018-07-14T13:56:17.566Z,6.40
2018-07-14T13:58:47.099Z,5.07
2018-07-14T14:01:17.371Z,7.20
2018-07-14T14:03:47.425Z,5.50
2018-07-14T14:06:18.249Z,6.67
2018-07-14T14:08:48.978Z,7.50
2018-07-14T14:11:18.623Z,5.93
2018-07-14T14:13:47.871Z,6.80
2018-07-14T14:16:18.724Z,7.03
2018-07-14T14:18:48.712Z,6.73
2018-07-14T14:21:18.935Z,6.07
2018-07-14T14:23:50.018Z,6.23
2018-07-14T14:26:19.581Z,7.10
2018-07-14T14:28:49.019Z,6.20
2018-07-14T14:31:18.955Z,6.90
2018-07-14T14:33:48.778Z,7.00
2018-07-14T14:36:19.458Z,7.07
2018-07-14T14:38:50.138Z,6.63
2018-07-14T14:41:20.176Z,8.00
2018-07-14T14:43:50.680Z,7.60
2018-07-14T14:46:20.563Z,6.93
2018-07-14T14:48:50.970Z,7.77
2018-07-14T14:51:21.349Z,12.03
2018-07-14T14:53:51.394Z,7.77
2018-07-14T14:56:21.456Z,10.57
2018-07-14T14:58:52.011Z,5.93
2018-07-14T15:01:21.477Z,7.77
2018-07-14T15:03:51.420Z,6.67
2018-07-14T15:06:20.776Z,5.83
2018-07-14T15:08:49.950Z,8.57
2018-07-14T15:11:19.607Z,6.73
2018-07-14T15:13:48.765Z,6.00
2018-07-14T15:16:19.155Z,4.40
2018-07-14T15:18:49.474Z,8.07
2018-07-14T15:21:19.194Z,8.77
2018-07-14T15:23:48.405Z,6.60
2018-07-14T15:26:18.387Z,6.20
2018-07-14T15:28:48.994Z,9.20
2018-07-14T15:31:18.199Z,5.47
2018-07-14T15:33:48.037Z,5.13
2018-07-14T15:36:19.713Z,4.37
2018-07-14T15:38:49.543Z,8.23
2018-07-14T15:41:19.726Z,5.83
2018-07-14T15:43:49.238Z,6.17
2018-07-14T15:46:19.648Z,8.63
2018-07-14T15:48:50.206Z,4.27
2018-07-14T15:51:20.251Z,4.97
2018-07-14T15:53:49.442Z,13.87
2018-07-14T15:56:19.810Z,4.63
2018-07-14T15:58:49.937Z,5.37
2018-07-14T16:01:19.818Z,6.07
2018-07-14T16:03:50.258Z,8.83
2018-07-14T16:06:21.224Z,4.50
2018-07-14T16:08:50.758Z,5.27
2018-07-14T16:11:21.303Z,6.50
2018-07-14T16:13:51.334Z,5.00
2018-07-14T16:16:21.326Z,4.73
2018-07-14T16:18:52.287Z,5.97
2018-07-14T16:21:21.946Z,8.70
2018-07-14T16:23:52.274Z,5.53
2018-07-14T16:26:22.106Z,5.67
2018-07-14T16:28:51.534Z,4.17
2018-07-14T16:31:21.837Z,3.73
2018-07-14T16:33:52.838Z,5.63
2018-07-14T16:36:23.274Z,5.40
2018-07-14T16:38:52.683Z,4.07
2018-07-14T16:41:23.846Z,4.97
2018-07-14T16:43:53.118Z,4.10
2018-07-14T16:46:22.786Z,3.07
2018-07-14T16:48:53.283Z,3.37
2018-07-14T16:51:23.933Z,6.40
2018-07-14T16:53:54.199Z,6.77
2018-07-14T16:56:25.315Z,5.20
2018-07-14T16:58:54.669Z,3.77
2018-07-14T17:01:25.003Z,5.53
2018-07-14T17:03:55.426Z,4.70
2018-07-14T17:06:25.938Z,5.13
2018-07-14T17:08:56.459Z,2.93
2018-07-14T17:11:26.076Z,4.63
2018-07-14T17:13:55.964Z,4.17
2018-07-14T17:16:25.490Z,5.97
2018-07-14T17:18:56.582Z,4.90
2018-07-14T17:21:26.532Z,4.67
2018-07-14T17:23:57.017Z,4.70
2018-07-14T17:26:26.531Z,3.67
2018-07-14T17:28:56.259Z,4.20
2018-07-14T17:31:26.722Z,3.40
2018-07-14T17:33:57.443Z,5.23
2018-07-14T17:36:27.477Z,4.37
2018-07-14T17:38:58.166Z,4.40
2018-07-14T17:41:28.080Z,3.97
2018-07-14T17:43:57.251Z,4.43
2018-07-14T17:46:27.116Z,3.90
2018-07-14T17:48:57.218Z,5.87
2018-07-14T17:51:26.451Z,3.60
2018-07-14T17:53:55.863Z,4.77
2018-07-14T17:56:26.341Z,4.20
2018-07-14T17:58:57.602Z,3.60
2018-07-14T18:01:27.478Z,4.00
2018-07-14T18:03:58.006Z,3.27
2018-07-14T18:06:27.542Z,3.00
2018-07-14T18:08:57.249Z,3.10
2018-07-14T18:11:27.310Z,6.63
2018-07-14T18:13:57.081Z,3.83
2018-07-14T18:16:26.349Z,3.93
2018-07-14T18:18:55.673Z,4.17
2018-07-14T18:21:25.695Z,5.83
2018-07-14T18:23:56.854Z,3.30
2018-07-14T18:26:26.390Z,3.70
2018-07-14T18:28:56.274Z,5.47
2018-07-14T18:31:25.638Z,3.77
2018-07-14T18:33:54.964Z,3.33
2018-07-14T18:36:24.043Z,4.00
2018-07-14T18:38:54.094Z,3.87
2018-07-14T18:41:24.450Z,3.60
2018-07-14T18:43:54.129Z,3.80
2018-07-14T18:46:24.851Z,3.80
2018-07-14T18:48:55.665Z,3.00
2018-07-14T18:51:25.656Z,3.43
2018-07-14T18:53:55.440Z,2.57
2018-07-14T18:56:25.618Z,4.03
2018-07-14T18:58:56.246Z,3.03
2018-07-14T19:01:26.235Z,2.83
2018-07-14T19:03:56.338Z,3.60
2018-07-14T19:06:25.552Z,4.10
2018-07-14T19:08:55.643Z,4.20
2018-07-14T19:11:25.652Z,4.23
2018-07-14T19:13:55.443Z,3.03
2018-07-14T19:16:24.470Z,2.50
2018-07-14T19:18:54.270Z,3.73
2018-07-14T19:21:23.782Z,2.70
2018-07-14T19:23:54.210Z,2.57
2018-07-14T19:26:25.291Z,3.03
2018-07-14T19:28:57.230Z,3.33
2018-07-14T19:31:27.362Z,3.70
2018-07-14T19:33:59.099Z,5.10
2018-07-14T19:36:29.577Z,2.60
2018-07-14T19:38:59.338Z,2.73
2018-07-14T19:41:28.542Z,3.07
2018-07-14T19:43:58.449Z,2.90
2018-07-14T19:46:28.283Z,3.07
2018-07-14T19:48:57.783Z,3.10
2018-07-14T19:51:27.351Z,4.50
2018-07-14T19:53:57.026Z,2.50
2018-07-14T19:56:26.912Z,3.27
2018-07-14T19:58:57.389Z,2.87
2018-07-14T20:01:26.719Z,2.80
2018-07-14T20:03:57.187Z,3.77
2018-07-14T20:06:27.548Z,3.43
2018-07-14T20:08:58.151Z,5.03
2018-07-14T20:11:28.111Z,6.20
2018-07-14T20:13:58.497Z,5.07
2018-07-14T20:16:28.526Z,5.53
2018-07-14T20:18:58.222Z,3.47
2018-07-14T20:21:29.225Z,4.83
2018-07-14T20:23:59.518Z,3.83
2018-07-14T20:26:29.377Z,2.77
2018-07-14T20:29:00.310Z,3.73
2018-07-14T20:31:30.225Z,4.07
2018-07-14T20:33:59.209Z,4.97
2018-07-14T20:36:28.702Z,4.97
2018-07-14T20:38:59.226Z,3.13
2018-07-14T20:41:29.571Z,6.03
2018-07-14T20:43:59.166Z,2.87
2018-07-14T20:46:30.091Z,5.53
2018-07-14T20:49:01.177Z,6.27
2018-07-14T20:51:31.454Z,4.13
2018-07-14T20:54:01.230Z,4.50
2018-07-14T20:56:31.115Z,4.30
2018-07-14T20:59:00.475Z,2.80
2018-07-14T21:01:29.558Z,3.20
2018-07-14T21:03:59.054Z,3.40
2018-07-14T21:06:30.731Z,3.87
2018-07-14T21:09:01.394Z,3.07
2018-07-14T21:11:30.614Z,3.23
2018-07-14T21:14:00.298Z,5.23
2018-07-14T21:16:29.450Z,2.90
2018-07-14T21:19:00.594Z,2.60
2018-07-14T21:21:31.311Z,5.17
2018-07-14T21:24:02.341Z,2.83
2018-07-14T21:26:34.154Z,3.90
2018-07-14T21:29:03.689Z,3.43
2018-07-14T21:31:34.418Z,3.17
2018-07-14T21:34:04.890Z,2.60
2018-07-14T21:36:34.730Z,3.40
2018-07-14T21:39:05.377Z,4.03
2018-07-14T21:41:35.388Z,2.70
2018-07-14T21:44:06.830Z,3.27
2018-07-14T21:49:28.387Z,3.20
2018-07-14T21:51:58.318Z,6.17
2018-07-14T21:54:28.552Z,4.20
2018-07-14T21:56:58.466Z,2.90
2018-07-14T21:59:28.464Z,3.77
2018-07-14T22:01:58.168Z,3.50
2018-07-14T22:04:27.679Z,3.20
2018-07-14T22:06:57.204Z,7.47
2018-07-14T22:09:27.230Z,2.90
2018-07-14T22:11:57.345Z,3.83
2018-07-14T22:14:26.439Z,4.10
2018-07-14T22:16:55.998Z,5.90
2018-07-14T22:19:25.579Z,4.70
2018-07-14T22:21:55.355Z,5.33
2018-07-14T22:24:25.156Z,4.13
2018-07-14T22:26:54.601Z,6.57
2018-07-14T22:29:23.447Z,4.90
2018-07-14T22:31:53.310Z,7.63
2018-07-14T22:34:24.028Z,4.73
2018-07-14T22:36:54.682Z,3.73
2018-07-14T22:39:24.542Z,5.87
2018-07-14T22:41:55.267Z,5.27
2018-07-14T22:44:26.605Z,4.63
2018-07-14T22:46:56.626Z,6.87
2018-07-14T22:49:26.581Z,3.93
2018-07-14T22:51:56.435Z,4.03
2018-07-14T22:54:27.288Z,3.30
2018-07-14T22:56:56.528Z,6.07
2018-07-14T22:59:26.637Z,4.60
2018-07-14T23:01:57.203Z,3.57
2018-07-14T23:04:26.422Z,3.37
2018-07-14T23:06:56.651Z,4.67
2018-07-14T23:09:27.286Z,3.60
2018-07-14T23:11:57.588Z,4.20
2018-07-14T23:14:27.193Z,3.70
2018-07-14T23:16:56.823Z,4.10
2018-07-14T23:19:27.272Z,3.97
2018-07-14T23:21:57.675Z,3.00
2018-07-14T23:24:28.398Z,4.27
2018-07-14T23:26:58.385Z,3.63
2018-07-14T23:29:29.842Z,4.23
2018-07-14T23:32:00.621Z,3.97
2018-07-14T23:34:31.079Z,3.47
2018-07-14T23:37:01.577Z,4.43
2018-07-14T23:39:31.883Z,6.73
2018-07-14T23:42:01.865Z,5.03
2018-07-14T23:44:32.234Z,2.93
2018-07-14T23:47:02.938Z,4.93
2018-07-14T23:49:33.314Z,3.27
2018-07-14T23:52:03.655Z,3.07
2018-07-14T23:54:34.206Z,3.27
2018-07-14T23:57:04.410Z,5.20
2018-07-14T23:59:34.907Z,3.40
